Time;durP1;ratioP1;P1;durP2;ratioP2;P2;SDS_P1;SDS_P2;PMS_P1;PMS_P2;Temp;Humidity;BMP_temperature;BMP_pressure;BME280_temperature;BME280_humidity;BME280_pressure;Samples;Min_cycle;Max_cycle;Signal;HPM_P1;HPM_P2
2021/06/23 00:01:43;;;;;;;13.43;8.38;;;;;;;13.12;79.36;102037.09;5107860;28;20047;-56
2021/06/23 00:04:10;;;;;;;13.48;7.15;;;;;;;13.22;78.49;102029.50;5109315;28;20154;-56
2021/06/23 00:06:37;;;;;;;13.98;7.10;;;;;;;13.14;78.71;102029.94;5109249;28;20051;-54
2021/06/23 00:09:06;;;;;;;13.63;6.95;;;;;;;13.18;78.40;102031.47;5109904;28;20083;-56
2021/06/23 00:11:48;;;;;;;11.80;7.70;;;;;;;13.02;78.97;102039.41;5109212;28;20043;-54
2021/06/23 00:14:15;;;;;;;15.13;7.55;;;;;;;13.16;79.39;102037.78;5094083;28;20504;-53
2021/06/23 00:16:43;;;;;;;12.50;6.72;;;;;;;13.09;78.67;102033.78;5112915;28;20089;-53
2021/06/23 00:19:10;;;;;;;12.50;7.05;;;;;;;13.10;78.31;102033.72;5113322;28;20075;-52
2021/06/23 00:21:37;;;;;;;10.77;6.88;;;;;;;13.00;78.46;102030.72;5113357;28;20067;-54
2021/06/23 00:24:04;;;;;;;10.82;6.10;;;;;;;12.78;78.71;102024.97;5113922;28;20058;-53
2021/06/23 00:26:35;;;;;;;12.20;6.50;;;;;;;12.72;80.52;102020.88;5112651;28;20051;-54
2021/06/23 00:29:03;;;;;;;12.93;6.82;;;;;;;12.73;80.25;102011.16;5113404;28;20044;-57
2021/06/23 00:31:31;;;;;;;10.55;6.20;;;;;;;12.74;79.47;102000.50;5094855;28;20036;-57
2021/06/23 00:34:00;;;;;;;12.55;6.53;;;;;;;12.66;79.80;101990.38;5094751;28;20044;-57
2021/06/23 00:36:27;;;;;;;12.07;6.38;;;;;;;12.76;80.12;101984.59;5113139;28;20059;-57
2021/06/23 00:38:54;;;;;;;11.90;6.78;;;;;;;12.75;80.42;101981.09;5078459;28;20059;-53
2021/06/23 00:41:21;;;;;;;10.68;6.10;;;;;;;12.71;80.07;101982.22;5113040;28;20113;-52
2021/06/23 00:43:48;;;;;;;15.57;6.28;;;;;;;12.72;79.92;101981.28;5113050;28;20047;-48
2021/06/23 00:46:15;;;;;;;19.65;7.43;;;;;;;12.70;79.38;101987.59;5112769;28;20504;-55
2021/06/23 00:48:57;;;;;;;9.50;5.75;;;;;;;12.73;79.95;101987.41;5112256;28;20428;-54
2021/06/23 00:51:25;;;;;;;11.98;5.80;;;;;;;12.62;79.13;101986.19;5111805;28;20507;-54
2021/06/23 00:53:52;;;;;;;13.50;6.28;;;;;;;12.50;79.58;101987.75;5095120;28;20055;-53
2021/06/23 00:56:19;;;;;;;10.02;5.65;;;;;;;12.57;80.00;102000.59;5112223;28;20043;-54
2021/06/23 00:58:47;;;;;;;10.45;5.78;;;;;;;12.60;79.64;102008.38;5111588;28;20078;-53
2021/06/23 01:01:14;;;;;;;13.50;6.15;;;;;;;12.70;79.63;102016.63;5112988;28;20095;-52
2021/06/23 01:03:41;;;;;;;9.93;6.00;;;;;;;12.77;79.69;102023.25;5112084;28;20052;-54
2021/06/23 01:06:08;;;;;;;10.23;5.57;;;;;;;12.76;79.52;102024.19;5112271;28;20042;-53
2021/06/23 01:08:35;;;;;;;10.32;6.13;;;;;;;12.82;80.05;102021.22;5112556;28;20204;-53
2021/06/23 01:11:05;;;;;;;11.90;6.57;;;;;;;12.84;79.15;102030.75;5094477;28;20047;-52
2021/06/23 01:13:37;;;;;;;11.70;6.20;;;;;;;12.80;79.21;102025.72;5112080;28;20128;-51
2021/06/23 01:16:06;;;;;;;11.90;6.40;;;;;;;12.91;79.44;102025.97;5112229;28;20043;-52
2021/06/23 01:18:34;;;;;;;13.13;6.25;;;;;;;12.89;79.24;102024.34;5094025;28;20490;-53
2021/06/23 01:21:02;;;;;;;12.25;6.05;;;;;;;12.57;80.06;102019.94;5111854;28;20078;-54
2021/06/23 01:23:29;;;;;;;16.40;6.75;;;;;;;12.58;79.81;102020.78;5112983;28;20043;-54
2021/06/23 01:25:56;;;;;;;13.43;6.45;;;;;;;12.63;79.72;102026.66;5110853;28;20036;-57
2021/06/23 01:28:23;;;;;;;13.20;6.32;;;;;;;12.66;79.35;102034.41;5111674;28;20495;-56
2021/06/23 01:30:50;;;;;;;12.30;6.60;;;;;;;12.65;79.96;102024.78;5092949;28;20047;-57
2021/06/23 01:33:17;;;;;;;10.82;6.28;;;;;;;12.77;79.04;102026.72;5093803;28;20051;-57
2021/06/23 01:35:46;;;;;;;13.32;6.45;;;;;;;12.71;80.22;102032.38;5110322;28;20051;-56
2021/06/23 01:38:13;;;;;;;14.75;6.55;;;;;;;12.62;80.89;102030.22;5112826;28;20097;-56
2021/06/23 01:40:40;;;;;;;12.60;6.25;;;;;;;12.68;79.76;102041.31;5094106;28;20070;-57
2021/06/23 01:43:11;;;;;;;15.25;6.55;;;;;;;12.67;79.96;102034.31;5111852;28;20055;-57
2021/06/23 01:45:38;;;;;;;15.55;6.63;;;;;;;12.58;80.02;102044.53;5111555;28;20668;-58
2021/06/23 01:48:06;;;;;;;11.82;6.60;;;;;;;12.65;80.56;102044.13;5109830;28;20067;-57
2021/06/23 01:50:33;;;;;;;10.77;5.82;;;;;;;12.56;79.45;102046.41;5110275;28;20048;-58
2021/06/23 01:53:00;;;;;;;12.23;6.70;;;;;;;12.56;79.45;102054.31;5110528;28;20127;-57
2021/06/23 01:55:27;;;;;;;10.48;5.95;;;;;;;12.68;79.67;102053.66;5112170;28;20043;-57
2021/06/23 01:58:02;;;;;;;15.15;6.22;;;;;;;12.72;78.87;102049.03;5111102;28;20452;-55
2021/06/23 02:01:03;;;;;;;13.02;5.70;;;;;;;12.78;79.03;102059.28;5111560;28;20503;-55
2021/06/23 02:03:55;;;;;;;11.27;6.05;;;;;;;12.85;78.76;102060.63;5093539;28;20384;-56
2021/06/23 02:06:28;;;;;;;10.32;5.43;;;;;;;12.79;78.96;102060.97;5111804;28;20055;-56
2021/06/23 02:09:02;;;;;;;;;;;;;;;12.70;78.71;102057.03;5111526;28;20054;-55
2021/06/23 02:11:44;;;;;;;14.23;5.82;;;;;;;12.84;78.30;102061.56;5092971;28;19928;-56
2021/06/23 02:14:13;;;;;;;10.18;4.97;;;;;;;12.78;78.84;102065.41;5093965;28;20050;-58
2021/06/23 02:16:41;;;;;;;13.40;5.60;;;;;;;12.85;78.56;102065.91;5110288;28;20131;-57
2021/06/23 02:19:09;;;;;;;8.65;5.65;;;;;;;12.79;78.83;102061.81;5092027;28;20051;-54
2021/06/23 02:21:40;;;;;;;12.18;5.60;;;;;;;12.90;79.05;102058.59;5110241;28;20044;-53
2021/06/23 02:24:08;;;;;;;10.35;5.55;;;;;;;12.70;78.29;102069.41;5111949;28;20059;-54
2021/06/23 02:26:35;;;;;;;9.88;5.40;;;;;;;12.91;78.65;102060.31;5111101;28;20047;-52
2021/06/23 02:29:04;;;;;;;11.20;5.50;;;;;;;12.91;78.17;102062.94;5110834;28;20047;-51
2021/06/23 02:31:32;;;;;;;12.88;5.60;;;;;;;12.67;78.14;102065.97;5092777;28;20040;-52
2021/06/23 02:33:59;;;;;;;11.00;5.57;;;;;;;12.72;78.55;102056.97;5108958;28;20137;-57
2021/06/23 02:36:27;;;;;;;10.55;6.13;;;;;;;12.75;78.26;102068.22;5110889;28;20109;-52
2021/06/23 02:38:54;;;;;;;9.98;6.00;;;;;;;12.71;78.56;102065.81;5110908;28;20047;-56
2021/06/23 02:41:21;;;;;;;13.27;6.45;;;;;;;12.74;79.19;102063.03;5092419;28;20522;-50
2021/06/23 02:43:48;;;;;;;11.77;5.63;;;;;;;12.84;79.09;102061.56;5092779;28;20043;-56
2021/06/23 02:46:16;;;;;;;13.57;6.20;;;;;;;12.70;78.95;102066.75;5110298;28;20047;-56
2021/06/23 02:48:43;;;;;;;10.65;5.95;;;;;;;12.74;79.10;102073.56;5091813;28;20043;-52
2021/06/23 02:51:22;;;;;;;12.75;6.68;;;;;;;12.68;79.24;102080.06;5110208;28;20051;-57
2021/06/23 02:53:51;;;;;;;11.63;5.55;;;;;;;12.59;79.24;102086.66;5110581;28;20051;-53
2021/06/23 02:56:19;;;;;;;12.75;5.93;;;;;;;12.57;79.11;102083.25;5110039;28;20400;-57
2021/06/23 02:58:47;;;;;;;9.70;6.05;;;;;;;12.49;79.53;102080.19;5092297;28;20100;-52
2021/06/23 03:01:15;;;;;;;13.60;6.38;;;;;;;12.57;79.17;102083.25;5092226;28;20539;-56
2021/06/23 03:03:43;;;;;;;11.18;6.30;;;;;;;12.46;79.93;102078.56;5110486;28;20100;-57
2021/06/23 03:06:10;;;;;;;15.90;6.70;;;;;;;12.58;79.83;102082.31;5092740;28;20130;-57
2021/06/23 03:08:38;;;;;;;9.60;5.70;;;;;;;12.67;79.63;102075.69;5110218;28;20048;-57
2021/06/23 03:11:06;;;;;;;11.75;5.60;;;;;;;12.54;79.12;102077.28;5110042;28;20062;-54
2021/06/23 03:13:32;;;;;;;14.15;6.03;;;;;;;12.55;79.03;102073.72;5110233;28;20047;-54
2021/06/23 03:16:00;;;;;;;10.93;6.20;;;;;;;12.53;79.62;102081.72;5109439;28;20049;-51
2021/06/23 03:18:32;;;;;;;12.05;6.75;;;;;;;12.54;79.44;102088.69;5108423;28;20047;-54
2021/06/23 03:21:04;;;;;;;14.18;6.72;;;;;;;12.56;78.72;102081.56;5092452;28;20066;-54
2021/06/23 03:23:32;;;;;;;12.07;7.40;;;;;;;12.53;78.54;102079.09;5110513;28;20052;-58
2021/06/23 03:25:58;;;;;;;10.48;6.30;;;;;;;12.52;79.24;102075.56;5110013;28;20553;-56
2021/06/23 03:28:25;;;;;;;14.85;7.00;;;;;;;12.55;78.52;102081.63;5110117;28;20043;-56
2021/06/23 03:30:53;;;;;;;12.20;6.78;;;;;;;12.56;78.79;102076.28;5109546;28;20484;-57
2021/06/23 03:33:20;;;;;;;15.40;6.38;;;;;;;12.46;78.83;102075.06;5109988;28;20043;-50
2021/06/23 03:35:46;;;;;;;10.57;6.43;;;;;;;12.52;78.70;102074.75;5108904;28;20503;-57
2021/06/23 03:38:13;;;;;;;10.90;6.80;;;;;;;12.56;78.70;102081.56;5092709;28;20040;-57
2021/06/23 03:40:40;;;;;;;10.20;6.20;;;;;;;12.61;78.69;102074.25;5110295;28;20555;-49
2021/06/23 03:43:07;;;;;;;11.10;6.32;;;;;;;12.63;78.42;102077.63;5109354;28;20055;-52
2021/06/23 03:45:42;;;;;;;10.98;6.05;;;;;;;12.56;78.36;102072.81;5109657;28;20055;-49
2021/06/23 03:48:09;;;;;;;11.30;6.45;;;;;;;12.52;78.25;102074.75;5107119;28;20047;-52
2021/06/23 03:50:36;;;;;;;11.98;5.97;;;;;;;12.50;77.98;102080.09;5108085;28;20542;-50
2021/06/23 03:53:04;;;;;;;12.75;5.80;;;;;;;12.46;77.45;102077.69;5091874;28;20365;-58
2021/06/23 03:55:32;;;;;;;12.10;5.78;;;;;;;12.47;78.87;102071.50;5092155;28;20043;-56
2021/06/23 03:57:59;;;;;;;13.80;6.72;;;;;;;12.49;78.99;102078.41;5108904;28;20048;-57
2021/06/23 04:00:28;;;;;;;10.23;5.95;;;;;;;12.65;77.31;102078.44;5109443;28;20075;-57
2021/06/23 04:02:56;;;;;;;11.55;6.15;;;;;;;12.62;77.67;102081.22;5109071;28;20040;-57
2021/06/23 04:05:23;;;;;;;13.45;5.85;;;;;;;12.66;77.34;102087.19;5074893;28;20407;-57
2021/06/23 04:07:50;;;;;;;9.43;5.72;;;;;;;12.64;76.92;102076.72;5109326;28;20055;-57
2021/06/23 04:10:17;;;;;;;13.00;6.05;;;;;;;12.55;77.51;102081.63;5109924;28;20549;-57
2021/06/23 04:12:45;;;;;;;12.68;5.82;;;;;;;12.49;77.37;102080.19;5091561;28;20032;-49
2021/06/23 04:15:14;;;;;;;8.88;5.70;;;;;;;12.47;77.45;102082.88;5109371;28;20048;-53
2021/06/23 04:17:41;;;;;;;9.70;5.90;;;;;;;12.54;78.09;102083.41;5109285;28;20047;-52
2021/06/23 04:20:09;;;;;;;11.18;5.43;;;;;;;12.50;78.26;102071.31;5108186;28;20051;-57
2021/06/23 04:22:36;;;;;;;11.70;6.05;;;;;;;12.55;78.15;102081.63;5109820;28;20047;-57
2021/06/23 04:25:07;;;;;;;10.27;5.38;;;;;;;12.56;78.10;102081.56;5109498;28;20051;-57
2021/06/23 04:27:34;;;;;;;10.45;5.80;;;;;;;12.42;78.18;102078.78;5109574;28;20047;-57
2021/06/23 04:30:05;;;;;;;12.95;5.38;;;;;;;12.47;77.80;102076.78;5108675;28;20043;-57
2021/06/23 04:32:32;;;;;;;11.40;5.75;;;;;;;12.60;77.59;102072.53;5109520;28;20051;-57
2021/06/23 04:35:01;;;;;;;13.38;5.65;;;;;;;12.68;76.95;102080.06;5108117;28;20048;-57
2021/06/23 04:37:28;;;;;;;11.30;5.18;;;;;;;12.75;77.54;102069.97;5110005;28;20061;-57
2021/06/23 04:39:55;;;;;;;10.60;5.20;;;;;;;12.78;77.64;102070.66;5109169;28;20048;-57
2021/06/23 04:42:21;;;;;;;10.85;5.05;;;;;;;12.73;77.14;102082.44;5109505;28;20047;-57
2021/06/23 04:44:48;;;;;;;12.35;6.07;;;;;;;12.73;77.45;102090.34;5108990;28;20441;-57
2021/06/23 04:47:15;;;;;;;11.48;5.25;;;;;;;12.75;77.24;102099.00;5091031;28;20059;-49
2021/06/23 04:49:42;;;;;;;11.68;5.05;;;;;;;12.77;77.64;102097.16;5108632;28;20048;-51
2021/06/23 04:52:09;;;;;;;8.98;5.05;;;;;;;12.78;76.94;102089.16;5108795;28;20051;-51
2021/06/23 04:54:36;;;;;;;11.10;5.50;;;;;;;12.75;76.37;102093.75;5109592;28;20077;-53
2021/06/23 04:57:04;;;;;;;13.23;5.30;;;;;;;12.74;77.23;102078.84;5090620;28;20048;-50
2021/06/23 04:59:31;;;;;;;12.48;5.25;;;;;;;12.78;77.09;102080.41;5109171;28;20396;-52
2021/06/23 05:01:58;;;;;;;12.30;5.50;;;;;;;12.83;77.64;102084.47;5112288;28;20046;-50
2021/06/23 05:04:25;;;;;;;11.63;6.15;;;;;;;12.84;76.72;102093.25;5112319;28;20043;-53
2021/06/23 05:06:51;;;;;;;9.90;5.45;;;;;;;12.89;76.45;102085.09;5112899;28;20388;-51
2021/06/23 05:09:18;;;;;;;10.38;5.57;;;;;;;12.80;76.44;102089.94;5094601;28;20067;-51
2021/06/23 05:11:45;;;;;;;10.68;5.18;;;;;;;12.82;76.30;102084.56;5112326;28;20040;-52
2021/06/23 05:14:12;;;;;;;12.85;5.50;;;;;;;12.81;77.50;102074.94;5094651;28;20402;-51
2021/06/23 05:16:40;;;;;;;12.10;5.60;;;;;;;12.94;76.39;102080.38;5110174;28;20055;-53
2021/06/23 05:19:08;;;;;;;12.05;6.03;;;;;;;12.90;76.52;102087.63;5093177;28;20055;-53
2021/06/23 05:21:35;;;;;;;9.90;4.90;;;;;;;12.73;76.83;102087.72;5094230;28;20173;-58
2021/06/23 05:24:02;;;;;;;10.98;5.95;;;;;;;12.73;76.60;102091.19;5112208;28;20056;-57
2021/06/23 05:26:29;;;;;;;13.23;5.90;;;;;;;12.81;77.01;102096.06;5094007;28;20052;-58
2021/06/23 05:28:56;;;;;;;10.63;5.70;;;;;;;12.89;76.54;102099.13;5093528;28;20051;-57
2021/06/23 05:31:23;;;;;;;13.13;5.60;;;;;;;12.87;75.90;102094.88;5111652;28;20052;-58
2021/06/23 05:33:50;;;;;;;12.95;5.60;;;;;;;12.85;76.13;102092.31;5111525;28;20096;-58
2021/06/23 05:36:18;;;;;;;9.18;5.68;;;;;;;12.84;76.21;102099.38;5111503;28;20048;-58
2021/06/23 05:38:45;;;;;;;15.48;5.97;;;;;;;12.90;76.22;102100.84;5112712;28;20116;-58
2021/06/23 05:41:12;;;;;;;11.07;5.88;;;;;;;13.01;76.61;102098.44;5111361;28;20048;-58
2021/06/23 05:43:39;;;;;;;14.20;6.00;;;;;;;13.14;76.55;102098.63;5094425;28;20043;-51
2021/06/23 05:46:06;;;;;;;10.52;5.60;;;;;;;13.15;76.03;102102.94;5111241;28;20043;-53
2021/06/23 05:48:33;;;;;;;10.57;5.28;;;;;;;13.15;75.04;102104.75;5110302;28;20534;-51
2021/06/23 05:51:00;;;;;;;10.93;5.35;;;;;;;13.17;74.78;102110.78;5111318;28;20047;-58
2021/06/23 05:53:31;;;;;;;12.00;5.82;;;;;;;13.27;74.84;102117.25;5111123;28;20457;-58
2021/06/23 05:55:58;;;;;;;10.65;5.22;;;;;;;13.28;75.28;102111.06;5110766;28;20050;-58
2021/06/23 05:58:25;;;;;;;9.27;4.75;;;;;;;13.40;74.67;102113.97;5111502;28;20100;-52
2021/06/23 06:00:52;;;;;;;11.45;4.75;;;;;;;13.39;73.99;102112.25;5111104;28;20445;-58
2021/06/23 06:03:19;;;;;;;12.68;5.28;;;;;;;13.51;73.72;102111.53;5111109;28;20091;-58
2021/06/23 06:05:47;;;;;;;8.95;4.65;;;;;;;13.60;73.09;102113.66;5111087;28;20035;-58
2021/06/23 06:08:13;;;;;;;11.27;4.70;;;;;;;13.68;72.83;102107.94;5113807;28;20488;-58
2021/06/23 06:10:40;;;;;;;11.80;4.60;;;;;;;13.77;73.68;102112.69;5114698;28;20051;-51
2021/06/23 06:13:07;;;;;;;10.65;4.60;;;;;;;14.00;74.02;102118.41;5113642;28;20032;-52
2021/06/23 06:15:34;;;;;;;9.98;4.40;;;;;;;14.00;72.06;102126.34;5113606;28;20059;-48
2021/06/23 06:18:05;;;;;;;10.50;4.07;;;;;;;13.95;72.30;102129.25;5110011;28;20056;-53
2021/06/23 06:20:33;;;;;;;9.77;3.95;;;;;;;14.01;71.69;102125.41;5110741;28;20039;-52
2021/06/23 06:23:00;;;;;;;10.52;4.50;;;;;;;13.98;71.25;102123.78;5111904;28;20059;-53
2021/06/23 06:25:27;;;;;;;8.50;4.25;;;;;;;14.07;72.02;102130.34;5113540;28;20055;-52
2021/06/23 06:27:54;;;;;;;11.55;4.35;;;;;;;14.10;71.77;102134.59;5092420;28;20063;-59
2021/06/23 06:30:23;;;;;;;9.98;4.70;;;;;;;14.00;71.11;102139.56;5109902;28;20042;-59
2021/06/23 06:32:51;;;;;;;9.18;4.30;;;;;;;14.18;70.94;102133.19;5110612;28;20441;-54
2021/06/23 06:35:18;;;;;;;8.73;4.35;;;;;;;14.31;71.42;102140.38;5092106;28;20063;-51
2021/06/23 06:37:45;;;;;;;9.20;4.55;;;;;;;14.36;70.37;102146.25;5092889;28;20747;-52
2021/06/23 06:40:13;;;;;;;8.88;4.38;;;;;;;14.51;70.65;102150.59;5093264;28;20047;-58
2021/06/23 06:42:41;;;;;;;11.27;4.60;;;;;;;14.42;71.34;102153.81;5090936;28;20059;-58
2021/06/23 06:45:08;;;;;;;10.90;4.90;;;;;;;14.57;71.38;102144.06;5093384;28;20088;-57
2021/06/23 06:47:35;;;;;;;10.98;4.85;;;;;;;14.66;72.33;102142.72;5091112;28;20063;-58
2021/06/23 06:50:03;;;;;;;11.50;4.53;;;;;;;14.76;70.78;102143.81;5071289;28;20063;-51
2021/06/23 06:52:30;;;;;;;11.20;4.90;;;;;;;14.83;70.32;102144.28;5074792;28;20044;-58
2021/06/23 06:54:57;;;;;;;8.50;4.28;;;;;;;14.87;69.32;102143.16;5073918;28;20056;-51
2021/06/23 06:57:23;;;;;;;8.23;4.20;;;;;;;14.97;68.96;102154.00;5071890;28;20047;-53
2021/06/23 06:59:50;;;;;;;11.50;4.13;;;;;;;14.98;69.03;102153.94;5071807;28;20048;-52
2021/06/23 07:02:17;;;;;;;9.75;4.85;;;;;;;14.95;69.06;102147.97;5089688;28;20048;-58
2021/06/23 07:04:44;;;;;;;9.38;4.28;;;;;;;15.02;69.37;102158.09;5089436;28;20093;-52
2021/06/23 07:07:11;;;;;;;12.05;4.75;;;;;;;15.06;69.18;102156.09;5072635;28;20040;-58
2021/06/23 07:09:38;;;;;;;8.45;4.00;;;;;;;15.14;69.25;102160.91;5072270;28;20060;-52
2021/06/23 07:12:05;;;;;;;9.80;4.25;;;;;;;15.18;68.15;102157.94;5089400;28;20147;-52
2021/06/23 07:14:32;;;;;;;12.68;4.28;;;;;;;15.27;67.49;102161.81;5089544;28;20051;-51
2021/06/23 07:16:59;;;;;;;10.93;3.80;;;;;;;15.18;67.87;102155.31;5089673;28;20518;-53
2021/06/23 07:19:26;;;;;;;10.30;3.70;;;;;;;15.31;66.76;102160.69;5054995;28;20542;-57
2021/06/23 07:21:53;;;;;;;7.68;3.00;;;;;;;15.22;65.44;102155.97;5089670;28;20500;-52
2021/06/23 07:24:20;;;;;;;7.40;3.17;;;;;;;15.30;65.48;102161.63;5090120;28;20036;-57
2021/06/23 07:26:52;;;;;;;9.85;3.08;;;;;;;15.18;63.98;102154.47;5090438;28;20067;-50
2021/06/23 07:29:19;;;;;;;9.80;2.90;;;;;;;15.23;65.23;102152.38;5056313;28;20040;-54
2021/06/23 07:37:14;;;;;;;9.27;3.10;;;;;;;15.41;64.04;102154.78;5072076;28;20048;-57
2021/06/23 07:39:41;;;;;;;12.18;3.30;;;;;;;15.42;64.40;102153.81;5071851;28;20575;-59
2021/06/23 07:42:08;;;;;;;9.48;2.67;;;;;;;15.38;64.67;102150.53;5088612;28;20097;-58
2021/06/23 07:47:30;;;;;;;9.07;2.92;;;;;;;15.37;63.03;102162.06;5088870;28;20064;-54
2021/06/23 07:49:58;;;;;;;9.65;2.92;;;;;;;15.28;63.13;102155.56;5088498;28;20783;-54
2021/06/23 07:52:31;;;;;;;7.65;2.40;;;;;;;15.39;63.21;102157.50;5089380;28;20056;-54
2021/06/23 07:55:05;;;;;;;;;;;;;;;15.44;63.25;102155.41;5089497;28;20113;-50
2021/06/23 08:11:38;;;;;;;9.13;2.70;;;;;;;16.15;61.46;102137.47;5069019;28;20067;-52
2021/06/23 08:14:05;;;;;;;9.57;2.85;;;;;;;16.39;62.30;102142.91;5091367;28;20044;-58
2021/06/23 08:16:33;;;;;;;8.13;3.03;;;;;;;16.47;62.52;102141.50;5054219;28;20040;-52
2021/06/23 08:19:00;;;;;;;6.68;2.70;;;;;;;16.51;60.64;102137.69;5054211;28;20051;-53
2021/06/23 08:21:27;;;;;;;10.23;2.97;;;;;;;16.63;61.54;102134.16;5089085;28;20089;-58
2021/06/23 08:23:54;;;;;;;10.75;3.00;;;;;;;16.83;59.82;102137.25;5089085;28;20408;-52
2021/06/23 08:26:21;;;;;;;7.80;2.92;;;;;;;16.94;58.85;102136.50;5070553;28;20480;-53
2021/06/23 08:28:48;;;;;;;10.07;3.22;;;;;;;16.67;59.04;102140.97;5088967;28;20044;-53
2021/06/23 08:31:15;;;;;;;8.43;2.75;;;;;;;16.82;59.45;102141.69;5070955;28;20541;-51
2021/06/23 08:33:41;;;;;;;10.90;3.03;;;;;;;17.06;58.44;102147.09;5088571;28;20040;-54
2021/06/23 08:36:09;;;;;;;8.00;2.88;;;;;;;17.46;59.13;102142.47;5073812;28;20438;-54
2021/06/23 08:38:36;;;;;;;10.48;3.13;;;;;;;17.81;58.93;102144.31;5092929;28;20052;-55
2021/06/23 08:41:03;;;;;;;13.55;3.08;;;;;;;17.87;57.82;102151.81;5057884;28;20476;-55
2021/06/23 08:43:31;;;;;;;8.05;2.78;;;;;;;18.12;56.62;102147.31;5058774;28;20488;-52
2021/06/23 08:46:00;;;;;;;9.45;3.35;;;;;;;18.41;55.28;102145.91;5093891;28;20055;-57
2021/06/23 08:48:27;;;;;;;10.23;3.03;;;;;;;18.40;54.31;102144.22;5092089;28;20812;-58
2021/06/23 08:50:54;;;;;;;9.88;2.90;;;;;;;18.28;55.79;102145.16;5057265;28;20058;-55
2021/06/23 08:53:21;;;;;;;10.80;3.00;;;;;;;18.40;55.78;102143.38;5092391;28;20047;-57
2021/06/23 08:55:48;;;;;;;8.82;2.85;;;;;;;18.66;54.90;102140.47;5092413;28;20051;-53
2021/06/23 08:58:15;;;;;;;11.57;2.40;;;;;;;18.48;50.74;102151.63;5092302;28;20047;-54
2021/06/23 09:00:42;;;;;;;8.00;2.10;;;;;;;18.58;50.92;102141.06;5094227;28;20404;-54
2021/06/23 09:03:09;;;;;;;6.90;2.17;;;;;;;18.64;51.05;102142.41;5077362;28;20101;-54
2021/06/23 09:05:53;;;;;;;6.13;2.10;;;;;;;18.64;52.17;102148.59;5091752;28;20056;-58
2021/06/23 09:08:37;;;;;;;7.18;1.73;;;;;;;18.52;50.63;102147.75;5075047;28;20407;-58
2021/06/23 09:11:15;;;;;;;7.50;1.98;;;;;;;18.84;50.68;102146.16;5075514;28;20067;-58
2021/06/23 09:13:42;;;;;;;6.60;2.00;;;;;;;19.05;50.18;102147.13;5076836;28;20036;-58
2021/06/23 09:16:09;;;;;;;6.18;1.90;;;;;;;19.10;50.53;102144.06;5094370;28;20039;-58
2021/06/23 09:18:40;;;;;;;5.50;2.28;;;;;;;19.05;49.94;102144.47;5091064;28;20048;-57
2021/06/23 09:21:15;;;;;;;9.30;2.10;;;;;;;19.18;49.92;102148.81;5073843;28;20500;-58
2021/06/23 09:23:42;;;;;;;5.88;1.88;;;;;;;19.41;49.11;102144.25;5074452;28;20048;-58
2021/06/23 09:26:17;;;;;;;9.48;2.53;;;;;;;19.47;49.77;102143.75;5091938;28;20056;-57
2021/06/23 09:28:45;;;;;;;4.47;1.77;;;;;;;19.26;50.26;102143.69;5092202;28;20051;-52
2021/06/23 09:31:12;;;;;;;6.10;2.38;;;;;;;19.38;48.49;102147.19;5073933;28;20051;-54
2021/06/23 09:33:39;;;;;;;6.20;2.20;;;;;;;19.35;49.09;102150.94;5056644;28;20125;-54
2021/06/23 09:36:09;;;;;;;7.35;2.53;;;;;;;19.29;48.12;102147.94;5091587;28;20052;-53
2021/06/23 09:38:56;;;;;;;7.50;2.28;;;;;;;19.25;48.92;102155.31;5091926;28;20059;-52
2021/06/23 09:41:29;;;;;;;7.55;2.15;;;;;;;19.54;48.70;102146.75;5091958;28;20036;-54
2021/06/23 09:44:00;;;;;;;9.40;2.95;;;;;;;19.69;49.04;102155.31;5094520;28;20051;-58
2021/06/23 09:46:36;;;;;;;10.02;3.45;;;;;;;19.64;50.41;102163.69;5075478;28;20051;-52
2021/06/23 09:49:07;;;;;;;11.40;2.90;;;;;;;20.06;48.18;102152.22;5076590;28;20048;-58
2021/06/23 09:51:50;;;;;;;7.13;2.78;;;;;;;20.15;47.87;102147.91;5059570;28;20063;-58
2021/06/23 09:54:22;;;;;;;8.45;3.03;;;;;;;19.79;48.16;102158.06;5094504;28;20044;-58
2021/06/23 09:57:09;;;;;;;11.10;2.80;;;;;;;19.90;48.49;102163.34;5094683;28;20050;-58
2021/06/23 09:59:38;;;;;;;10.05;3.13;;;;;;;19.71;48.21;102159.53;5090997;28;20143;-58
2021/06/23 10:02:23;;;;;;;8.48;2.80;;;;;;;20.03;48.90;102150.66;5073374;28;20496;-58
2021/06/23 10:04:50;;;;;;;7.63;2.83;;;;;;;20.15;48.38;102145.25;5090193;28;20090;-58
2021/06/23 10:07:39;;;;;;;7.82;2.45;;;;;;;20.40;46.25;102152.00;5091692;28;20051;-53
2021/06/23 10:10:08;;;;;;;9.65;2.78;;;;;;;20.17;46.67;102148.66;5072852;28;20052;-53
2021/06/23 10:12:35;;;;;;;6.43;3.00;;;;;;;20.13;47.56;102140.03;5072931;28;20067;-58
2021/06/23 10:15:03;;;;;;;7.70;2.85;;;;;;;20.01;47.11;102151.78;5090432;28;20044;-58
2021/06/23 10:17:31;;;;;;;8.07;2.80;;;;;;;20.29;47.05;102147.59;5090949;28;20048;-53
2021/06/23 10:20:00;;;;;;;8.57;2.95;;;;;;;20.38;47.57;102144.13;5070226;28;20052;-58
2021/06/23 10:22:27;;;;;;;8.10;3.45;;;;;;;20.36;46.24;102153.25;5073006;28;20452;-54
2021/06/23 10:24:55;;;;;;;8.13;3.05;;;;;;;20.52;45.28;102153.63;5089734;28;20040;-58
2021/06/23 10:27:23;;;;;;;9.68;2.67;;;;;;;20.66;45.21;102152.41;5071943;28;20052;-58
2021/06/23 10:29:53;;;;;;;7.28;2.60;;;;;;;20.32;46.13;102138.47;5089088;28;20413;-54
2021/06/23 10:32:21;;;;;;;10.32;3.25;;;;;;;20.54;46.42;102146.28;5089883;28;20391;-55
2021/06/23 10:34:48;;;;;;;9.57;2.65;;;;;;;20.87;46.82;102148.84;5037679;28;20056;-55
2021/06/23 10:37:16;;;;;;;6.60;2.50;;;;;;;20.96;46.49;102141.84;5072608;28;20493;-56
2021/06/23 10:39:45;;;;;;;8.25;2.80;;;;;;;20.77;45.79;102148.81;5072185;28;20056;-57
2021/06/23 10:42:12;;;;;;;6.70;2.20;;;;;;;20.84;44.66;102147.28;5055160;28;20055;-60
2021/06/23 10:44:42;;;;;;;9.82;2.40;;;;;;;21.00;45.67;102144.09;5054885;28;20060;-57
2021/06/23 10:47:27;;;;;;;6.13;2.45;;;;;;;21.02;45.12;102136.75;5089484;28;20071;-61
2021/06/23 10:49:55;;;;;;;9.95;2.65;;;;;;;20.93;44.80;102137.63;5069946;28;20070;-55
2021/06/23 10:52:22;;;;;;;8.85;2.40;;;;;;;21.00;46.85;102140.59;5089856;28;20055;-62
2021/06/23 10:54:52;;;;;;;8.63;2.65;;;;;;;21.24;45.12;102130.34;5089604;28;20054;-55
2021/06/23 10:57:33;;;;;;;6.45;2.35;;;;;;;21.64;45.24;102135.72;5055348;28;20048;-53
2021/06/23 11:00:11;;;;;;;8.68;2.80;;;;;;;21.71;44.17;102132.34;5088893;28;20050;-54
2021/06/23 11:02:42;;;;;;;7.55;2.15;;;;;;;22.12;44.54;102135.66;5089326;28;20063;-54
2021/06/23 11:05:14;;;;;;;8.90;2.40;;;;;;;21.96;43.78;102140.75;5088541;28;20060;-52
2021/06/23 11:07:43;;;;;;;7.50;2.78;;;;;;;22.26;42.08;102142.41;5072124;28;20040;-54
2021/06/23 11:10:16;;;;;;;6.82;2.58;;;;;;;22.53;42.63;102138.09;5089635;28;20508;-55
2021/06/23 11:12:44;;;;;;;6.20;2.22;;;;;;;22.73;42.67;102138.84;5089414;28;20530;-54
2021/06/23 11:15:25;;;;;;;7.20;2.30;;;;;;;22.87;43.00;102139.34;5089274;28;20492;-57
2021/06/23 11:17:54;;;;;;;6.38;2.28;;;;;;;22.89;40.89;102138.19;5093022;28;20567;-59
2021/06/23 11:20:21;;;;;;;7.85;2.40;;;;;;;23.36;41.54;102137.19;5090759;28;20056;-57
2021/06/23 11:22:50;;;;;;;7.57;2.17;;;;;;;23.19;40.11;102141.56;5109647;28;20048;-57
2021/06/23 11:25:23;;;;;;;8.05;2.40;;;;;;;22.62;39.90;102131.00;5091462;28;20050;-58
2021/06/23 11:28:08;;;;;;;8.32;2.35;;;;;;;23.12;40.95;102138.66;5108757;28;20062;-59
2021/06/23 11:30:50;;;;;;;6.93;2.45;;;;;;;23.27;38.55;102140.78;5109141;28;20747;-58
2021/06/23 11:33:26;;;;;;;6.55;2.20;;;;;;;23.32;39.02;102138.50;5090670;28;20109;-57
2021/06/23 11:35:57;;;;;;;8.25;2.35;;;;;;;23.07;39.66;102137.38;5107524;28;20043;-58
2021/06/23 11:38:25;;;;;;;8.32;2.25;;;;;;;23.19;37.92;102138.03;5090465;28;20051;-53
2021/06/23 11:40:53;;;;;;;7.47;2.15;;;;;;;22.97;38.33;102142.78;5090706;28;20043;-52
2021/06/23 11:43:20;;;;;;;5.50;2.13;;;;;;;22.91;39.55;102135.38;5106798;28;20105;-60
2021/06/23 11:45:47;;;;;;;6.55;2.30;;;;;;;23.14;38.80;102130.44;5105347;28;20393;-54
2021/06/23 11:48:15;;;;;;;7.03;2.15;;;;;;;23.41;38.19;102134.03;5088855;28;20123;-52
2021/06/23 11:50:43;;;;;;;7.95;2.50;;;;;;;23.34;37.56;102131.16;5106631;28;20058;-53
2021/06/23 11:53:12;;;;;;;6.05;2.13;;;;;;;23.25;41.59;102132.06;5107492;28;20058;-52